Latest Weather Observations for Little Bay

IDN60901

Issued at 7:51 pm EDT Wednesday 25 November 2020 (issued every 10 minutes, with the page automatically refreshed every 10 minutes)

About weather observations | Map of Sydney area stations | Latest observations for Sydney area | Other Formats
Station Details ID: 066051 Name: LITTLE BAY (THE COAST GOLF CLUB) Lat: -33.98 Lon: 151.25 Height: 22.0 m
Data from the previous 72 hours. | See also: Recent months at Little Bay
Date/Time
EDT
Temp
°C
App
Temp
°C
Dew
Point
°C
Rel
Hum
%
Delta-T
°C
Wind Press
QNH
hPa
Press
MSL
hPa
Rain since
9am
mm
Dir  Spd
km/h
Gust
km/h
Spd
kts
Gust
kts
25/07:30pm - - - - - NNE 28 35 15 19 - - -
25/07:00pm - - - - - NNE 26 32 14 17 - - -
25/06:30pm - - - - - NNE 26 33 14 18 - - -
25/06:00pm - - - - - NE 24 32 13 17 - - -
25/05:30pm - - - - - NE 24 30 13 16 - - -
25/05:00pm - - - - - NE 20 28 11 15 - - -
25/04:30pm - - - - - NE 19 24 10 13 - - -
25/04:00pm - - - - - NE 19 24 10 13 - - -
25/03:30pm - - - - - NE 17 24 9 13 - - -
25/03:00pm - - - - - NE 17 20 9 11 - - -
25/02:30pm - - - - - NE 15 20 8 11 - - -
25/02:00pm - - - - - NE 13 17 7 9 - - -
25/01:30pm - - - - - ENE 11 17 6 9 - - -
25/01:00pm - - - - - ENE 11 13 6 7 - - -
25/12:30pm - - - - - ENE 11 15 6 8 - - -
25/12:00pm - - - - - E 11 15 6 8 - - -
25/11:30am - - - - - E 9 13 5 7 - - -
25/11:00am - - - - - ESE 9 13 5 7 - - -
25/10:30am - - - - - SE 7 9 4 5 - - -
25/10:00am - - - - - SE 9 11 5 6 - - -
25/09:30am - - - - - SSE 9 11 5 6 - - -
25/09:00am - - - - - SE 6 9 3 5 - - -
25/08:30am - - - - - SE 4 6 2 3 - - -
25/08:00am - - - - - SE 2 6 1 3 - - -
25/07:30am - - - - - CALM 0 0 0 0 - - -
25/07:00am - - - - - WSW 4 6 2 3 - - -
25/06:30am - - - - - WSW 6 9 3 5 - - -
25/06:00am - - - - - W 6 7 3 4 - - -
25/05:30am - - - - - WSW 6 6 3 3 - - -
25/05:00am - - - - - S 2 4 1 2 - - -
25/04:30am - - - - - SSW 9 11 5 6 - - -
25/04:00am - - - - - ENE 6 11 3 6 - - -
25/03:30am - - - - - NNE 7 11 4 6 - - -
25/03:00am - - - - - ENE 15 20 8 11 - - -
25/02:30am - - - - - SSE 11 13 6 7 - - -
25/02:00am - - - - - SSE 7 11 4 6 - - -
25/01:30am - - - - - SSE 9 11 5 6 - - -
25/01:00am - - - - - SSE 9 11 5 6 - - -
25/12:30am - - - - - SSE 9 13 5 7 - - -
25/12:00am - - - - - SSE 7 11 4 6 - - -
 
Date/Time
EDT
Temp
°C
App
Temp
°C
Dew
Point
°C
Rel
Hum
%
Delta-T
°C
Wind Press
QNH
hPa
Press
MSL
hPa
Rain since
9am
mm
Dir  Spd
km/h
Gust
km/h
Spd
kts
Gust
kts
24/11:30pm - - - - - SSE 9 13 5 7 - - -
24/11:00pm - - - - - SSE 13 15 7 8 - - -
24/10:30pm - - - - - SSE 11 15 6 8 - - -
24/10:00pm - - - - - SSE 15 19 8 10 - - -
24/09:30pm - - - - - SSE 15 19 8 10 - - -
24/09:00pm - - - - - SSE 13 17 7 9 - - -
24/08:30pm - - - - - SSE 15 20 8 11 - - -
24/08:00pm - - - - - SSE 15 19 8 10 - - -
24/07:30pm - - - - - SSE 15 19 8 10 - - -
24/07:00pm - - - - - SE 17 22 9 12 - - -
24/06:30pm - - - - - SSE 17 22 9 12 - - -
24/06:00pm - - - - - SSE 15 20 8 11 - - -
24/05:30pm - - - - - SSE 20 24 11 13 - - -
24/05:00pm - - - - - SSE 20 26 11 14 - - -
24/04:30pm - - - - - SSE 24 30 13 16 - - -
24/04:00pm - - - - - SSE 22 28 12 15 - - -
24/03:30pm - - - - - SSE 24 30 13 16 - - -
24/03:00pm - - - - - SSE 26 33 14 18 - - -
24/02:30pm - - - - - SSE 22 30 12 16 - - -
24/02:00pm - - - - - SSE 22 32 12 17 - - -
24/01:30pm - - - - - S 22 30 12 16 - - -
24/01:00pm - - - - - S 24 33 13 18 - - -
24/12:30pm - - - - - S 24 33 13 18 - - -
24/12:00pm - - - - - S 26 33 14 18 - - -
24/11:30am - - - - - S 28 35 15 19 - - -
24/11:00am - - - - - S 28 35 15 19 - - -
24/10:30am - - - - - SSW 28 35 15 19 - - -
24/10:00am - - - - - S 28 41 15 22 - - -
24/09:30am - - - - - S 28 37 15 20 - - -
24/09:00am - - - - - S 28 39 15 21 - - -
24/08:30am - - - - - S 28 39 15 21 - - -
24/08:00am - - - - - S 24 35 13 19 - - -
24/07:30am - - - - - S 28 39 15 21 - - -
24/07:00am - - - - - S 26 35 14 19 - - -
24/06:30am - - - - - S 26 37 14 20 - - -
24/06:00am - - - - - S 26 37 14 20 - - -
24/05:30am - - - - - S 24 33 13 18 - - -
24/05:00am - - - - - SSW 17 28 9 15 - - -
24/04:30am - - - - - SSW 19 26 10 14 - - -
24/04:00am - - - - - SSW 19 24 10 13 - - -
24/03:30am - - - - - SSW 15 22 8 12 - - -
24/03:00am - - - - - SSW 15 20 8 11 - - -
24/02:30am - - - - - SSW 17 28 9 15 - - -
24/02:00am - - - - - SSW 20 30 11 16 - - -
24/01:30am - - - - - SSW 20 30 11 16 - - -
24/01:00am - - - - - SSW 15 22 8 12 - - -
24/12:30am - - - - - SW 13 19 7 10 - - -
24/12:00am - - - - - SW 11 17 6 9 - - -
 
Date/Time
EDT
Temp
°C
App
Temp
°C
Dew
Point
°C
Rel
Hum
%
Delta-T
°C
Wind Press
QNH
hPa
Press
MSL
hPa
Rain since
9am
mm
Dir  Spd
km/h
Gust
km/h
Spd
kts
Gust
kts
23/11:30pm - - - - - S 20 28 11 15 - - -
23/11:00pm - - - - - S 24 32 13 17 - - -
23/10:30pm - - - - - S 24 33 13 18 - - -
23/10:00pm - - - - - S 24 37 13 20 - - -
23/09:30pm - - - - - S 20 30 11 16 - - -
23/09:00pm - - - - - S 19 24 10 13 - - -
23/08:30pm - - - - - SSW 19 32 10 17 - - -
23/08:00pm - - - - - SSW 15 24 8 13 - - -
23/07:30pm - - - - - S 15 20 8 11 - - -
23/07:00pm - - - - - SSW 19 28 10 15 - - -
23/06:30pm - - - - - WNW 11 24 6 13 - - -
23/06:00pm - - - - - WNW 9 19 5 10 - - -
23/05:30pm - - - - - WNW 4 9 2 5 - - -
23/05:00pm - - - - - SW 13 24 7 13 - - -
23/04:30pm - - - - - WNW 13 20 7 11 - - -
23/04:00pm - - - - - NW 13 24 7 13 - - -
23/03:30pm - - - - - NNW 11 19 6 10 - - -
23/03:00pm - - - - - NW 13 22 7 12 - - -
23/02:30pm - - - - - NNW 22 41 12 22 - - -
23/02:00pm - - - - - NNW 20 33 11 18 - - -
23/01:30pm - - - - - NW 22 41 12 22 - - -
23/01:00pm - - - - - NW 19 32 10 17 - - -
23/12:30pm - - - - - NW 11 22 6 12 - - -
23/12:00pm - - - - - WNW 11 17 6 9 - - -
23/11:30am - - - - - NW 9 17 5 9 - - -
23/11:00am - - - - - WNW 9 20 5 11 - - -
23/10:30am - - - - - NW 9 17 5 9 - - -
23/10:00am - - - - - NNW 13 20 7 11 - - -
23/09:30am - - - - - NNW 9 15 5 8 - - -
23/09:00am - - - - - NW 4 7 2 4 - - -
23/08:30am - - - - - ENE 6 9 3 5 - - -
23/08:00am - - - - - NNW 7 11 4 6 - - -
23/07:30am - - - - - WNW 6 9 3 5 - - -
23/07:00am - - - - - WSW 7 11 4 6 - - -
23/06:30am - - - - - SW 11 15 6 8 - - -
23/06:00am - - - - - SW 13 19 7 10 - - -
23/05:30am - - - - - SSW 15 20 8 11 - - -
23/05:00am - - - - - WSW 9 15 5 8 - - -
23/04:30am - - - - - SW 17 26 9 14 - - -
23/04:00am - - - - - W 19 33 10 18 - - -
23/03:30am - - - - - WSW 4 6 2 3 - - -
23/03:00am - - - - - WSW 4 6 2 3 - - -
23/02:30am - - - - - SW 6 9 3 5 - - -
23/02:00am - - - - - CALM 0 0 0 0 - - -
23/01:30am - - - - - CALM 0 4 0 2 - - -
23/01:00am - - - - - N 2 4 1 2 - - -
23/12:30am - - - - - N 2 4 1 2 - - -
23/12:00am - - - - - CALM 0 0 0 0 - - -
 
Date/Time
EDT
Temp
°C
App
Temp
°C
Dew
Point
°C
Rel
Hum
%
Delta-T
°C
Wind Press
QNH
hPa
Press
MSL
hPa
Rain since
9am
mm
Dir  Spd
km/h
Gust
km/h
Spd
kts
Gust
kts
22/11:30pm - - - - - N 2 4 1 2 - - -
22/11:00pm - - - - - CALM 0 2 0 1 - - -
22/10:30pm - - - - - N 7 11 4 6 - - -
22/10:00pm - - - - - N 2 6 1 3 - - -
22/09:30pm - - - - - N 6 6 3 3 - - -
22/09:00pm - - - - - N 4 6 2 3 - - -
22/08:30pm - - - - - N 11 17 6 9 - - -
22/08:00pm - - - - - N 15 22 8 12 - - -

Latest Capital City Observations: Canberra | Sydney | Melbourne | Brisbane | Adelaide | Perth | Hobart | Darwin

Other formats

Comma delimited format used in spreadsheet applications
http://www.bom.gov.au/fwo/IDN60901/IDN60901.94780.axf

JavaScript Object Notation format (JSON) in row-major order
http://www.bom.gov.au/fwo/IDN60901/IDN60901.94780.json

Data quality

Most of these data are generated automatically and are frequently updated. Quality checks on data are not normally performed. It is possible for incorrect values to appear. Refer to information at About Latest Weather Observations and please check the disclaimer before using these data.